createdAt,value
2019-01-02T00:00:10.447Z,31.13
2019-01-02T00:02:39.203Z,41.37
2019-01-02T00:05:07.835Z,32.20
2019-01-02T00:07:36.640Z,37.33
2019-01-02T00:10:06.595Z,40.47
2019-01-02T00:12:35.035Z,34.83
2019-01-02T00:15:03.555Z,35.60
2019-01-02T00:17:32.034Z,30.80
2019-01-02T00:20:00.783Z,31.30
2019-01-02T00:22:29.203Z,30.90
2019-01-02T00:24:57.926Z,32.80
2019-01-02T00:27:26.344Z,40.63
2019-01-02T00:29:55.175Z,28.83
2019-01-02T00:32:24.015Z,35.27
2019-01-02T00:34:52.583Z,33.10
2019-01-02T00:37:21.027Z,42.07
2019-01-02T00:39:49.444Z,35.73
2019-01-02T00:42:17.881Z,34.30
2019-01-02T00:44:46.306Z,29.27
2019-01-02T00:47:14.827Z,31.90
2019-01-02T00:49:43.571Z,28.57
2019-01-02T00:52:12.283Z,29.90
2019-01-02T00:54:40.740Z,34.60
2019-01-02T00:57:09.475Z,38.10
2019-01-02T00:59:37.967Z,36.43
2019-01-02T01:02:06.462Z,28.03
2019-01-02T01:04:34.914Z,25.83
2019-01-02T01:07:03.338Z,27.90
2019-01-02T01:09:31.783Z,28.83
2019-01-02T01:12:00.219Z,26.73
2019-01-02T01:14:28.676Z,31.00
2019-01-02T01:16:57.089Z,26.97
2019-01-02T01:19:25.506Z,20.37
2019-01-02T01:21:53.944Z,26.03
2019-01-02T01:24:22.396Z,22.27
2019-01-02T01:26:51.213Z,23.47
2019-01-02T01:29:19.660Z,21.63
2019-01-02T01:31:48.455Z,25.80
2019-01-02T01:34:16.911Z,20.43
2019-01-02T01:36:45.598Z,22.93
2019-01-02T01:39:14.299Z,23.93
2019-01-02T01:41:42.753Z,18.57
2019-01-02T01:44:11.416Z,20.77
2019-01-02T01:46:39.868Z,18.63
2019-01-02T01:49:08.296Z,18.57
2019-01-02T01:51:37.115Z,19.60
2019-01-02T01:54:05.532Z,19.37
2019-01-02T01:56:33.986Z,25.27
2019-01-02T01:59:02.408Z,19.90
2019-01-02T02:01:30.851Z,18.93
2019-01-02T02:03:59.539Z,15.37
2019-01-02T02:06:27.985Z,22.10
2019-01-02T02:08:56.427Z,14.03
2019-01-02T02:11:24.844Z,14.70
2019-01-02T02:13:53.303Z,19.77
2019-01-02T02:16:22.064Z,16.73
2019-01-02T02:18:50.511Z,18.20
2019-01-02T02:21:18.951Z,15.60
2019-01-02T02:23:47.772Z,17.73
2019-01-02T02:26:16.234Z,20.93
2019-01-02T02:28:44.940Z,16.07
2019-01-02T02:31:13.349Z,13.97
2019-01-02T02:33:42.154Z,15.10
2019-01-02T02:36:10.848Z,11.97
2019-01-02T02:38:39.569Z,13.10
2019-01-02T02:41:08.158Z,17.73
2019-01-02T02:43:37.004Z,13.23
2019-01-02T02:46:05.482Z,12.77
2019-01-02T02:48:34.422Z,17.80
2019-01-02T02:51:03.215Z,16.40
2019-01-02T02:53:31.948Z,13.20
2019-01-02T02:56:00.639Z,13.53
2019-01-02T02:58:29.462Z,9.77
2019-01-02T03:00:58.185Z,13.73
2019-01-02T03:03:26.880Z,14.23
2019-01-02T03:05:55.607Z,13.10
2019-01-02T03:08:24.048Z,10.53
2019-01-02T03:10:52.979Z,10.87
2019-01-02T03:13:21.780Z,12.30
2019-01-02T03:15:50.562Z,17.93
2019-01-02T03:18:19.308Z,13.37
2019-01-02T03:20:47.723Z,15.80
2019-01-02T03:23:16.167Z,15.97
2019-01-02T03:25:44.864Z,15.40
2019-01-02T03:28:13.700Z,8.27
2019-01-02T03:30:42.472Z,16.07
2019-01-02T03:33:11.287Z,10.50
2019-01-02T03:35:40.604Z,14.50
2019-01-02T03:38:09.048Z,13.40
2019-01-02T03:40:37.468Z,11.10
2019-01-02T03:43:05.981Z,16.23
2019-01-02T03:45:34.535Z,14.17
2019-01-02T03:48:03.034Z,21.07
2019-01-02T03:50:31.419Z,16.53
2019-01-02T03:52:59.858Z,15.90
2019-01-02T03:55:28.277Z,17.03
2019-01-02T03:57:56.671Z,11.77
2019-01-02T04:00:25.095Z,19.43
2019-01-02T04:02:53.519Z,20.03
2019-01-02T04:05:23.355Z,20.80
2019-01-02T04:07:54.852Z,22.40
2019-01-02T04:10:23.266Z,17.67
2019-01-02T04:12:51.696Z,25.53
2019-01-02T04:15:20.095Z,18.70
2019-01-02T04:17:48.499Z,18.90
2019-01-02T04:20:16.915Z,17.73
2019-01-02T04:22:45.334Z,17.80
2019-01-02T04:25:13.743Z,22.30
2019-01-02T04:27:42.147Z,29.67
2019-01-02T04:30:13.319Z,20.80
2019-01-02T04:32:41.806Z,23.23
2019-01-02T04:35:10.195Z,19.33
2019-01-02T04:37:38.614Z,18.03
2019-01-02T04:40:12.144Z,19.33
2019-01-02T04:42:40.634Z,25.17
2019-01-02T04:45:10.564Z,19.87
2019-01-02T04:47:39.058Z,18.23
2019-01-02T04:50:10.100Z,21.73
2019-01-02T04:52:38.509Z,19.07
2019-01-02T04:55:06.956Z,17.97
2019-01-02T04:57:35.346Z,18.13
2019-01-02T05:00:11.839Z,16.97
2019-01-02T05:02:40.280Z,22.17
2019-01-02T05:05:08.672Z,13.83
2019-01-02T05:07:37.071Z,19.47
2019-01-02T05:10:11.250Z,24.53
2019-01-02T05:12:39.756Z,15.53
2019-01-02T05:15:09.996Z,16.23
2019-01-02T05:17:38.423Z,20.47
2019-01-02T05:20:09.791Z,15.03
2019-01-02T05:22:38.219Z,17.23
2019-01-02T05:25:07.894Z,15.07
2019-01-02T05:27:36.287Z,16.87
2019-01-02T05:30:07.793Z,18.23
2019-01-02T05:32:36.208Z,13.23
2019-01-02T05:35:05.471Z,20.83
2019-01-02T05:37:33.875Z,19.00
2019-01-02T05:40:02.368Z,12.67
2019-01-02T05:42:30.779Z,13.07
2019-01-02T05:44:59.199Z,18.97
2019-01-02T05:47:27.626Z,16.37
2019-01-02T05:49:56.034Z,10.17
2019-01-02T05:52:24.455Z,14.53
2019-01-02T05:54:52.931Z,12.10
2019-01-02T05:57:21.333Z,15.43
2019-01-02T05:59:49.797Z,13.27
2019-01-02T06:02:18.186Z,12.97
2019-01-02T06:04:46.613Z,11.77
2019-01-02T06:07:15.015Z,12.47
2019-01-02T06:09:43.436Z,10.53
2019-01-02T06:12:11.832Z,9.13
2019-01-02T06:14:40.234Z,8.63
2019-01-02T06:17:08.647Z,7.03
2019-01-02T06:19:37.044Z,9.30
2019-01-02T06:22:05.460Z,9.53
2019-01-02T06:24:33.943Z,10.03
2019-01-02T06:27:02.370Z,9.60
2019-01-02T06:29:30.764Z,6.10
2019-01-02T06:31:59.183Z,8.23
2019-01-02T06:34:27.591Z,3.37
2019-01-02T06:36:56.076Z,6.30
2019-01-02T06:39:24.803Z,6.63
2019-01-02T06:41:53.242Z,3.90
2019-01-02T06:44:21.651Z,5.27
2019-01-02T06:46:50.068Z,8.03
2019-01-02T06:49:18.544Z,6.20
2019-01-02T06:51:46.940Z,4.07
2019-01-02T06:54:15.372Z,6.87
2019-01-02T06:56:43.806Z,7.07
2019-01-02T06:59:12.228Z,5.87
2019-01-02T07:01:40.616Z,4.13
2019-01-02T07:04:09.126Z,5.17
2019-01-02T07:06:37.516Z,6.77
2019-01-02T07:09:07.258Z,3.43
2019-01-02T07:11:35.724Z,3.43
2019-01-02T07:14:04.147Z,7.77
2019-01-02T07:16:32.560Z,5.53
2019-01-02T07:19:00.979Z,5.80
2019-01-02T07:21:29.405Z,5.37
2019-01-02T07:23:57.813Z,5.70
2019-01-02T07:26:26.232Z,2.77
2019-01-02T07:28:54.652Z,7.40
2019-01-02T07:31:23.143Z,3.93
2019-01-02T07:33:55.192Z,3.93
2019-01-02T07:36:41.548Z,5.03
2019-01-02T07:39:21.271Z,5.63
2019-01-02T07:42:07.713Z,4.23
2019-01-02T07:44:48.039Z,3.47
2019-01-02T07:47:37.696Z,4.07
2019-01-02T07:50:42.072Z,3.37
2019-01-02T07:53:41.852Z,4.57
2019-01-02T07:56:19.239Z,2.33
2019-01-02T07:58:56.357Z,2.80
2019-01-02T08:01:42.448Z,4.33
2019-01-02T08:04:22.420Z,6.37
2019-01-02T08:07:08.720Z,7.37
2019-01-02T08:09:43.139Z,3.47
2019-01-02T08:12:35.363Z,4.97
2019-01-02T08:15:21.713Z,7.00
2019-01-02T08:18:01.952Z,6.67
2019-01-02T08:20:49.449Z,4.07
2019-01-02T08:23:29.753Z,5.70
2019-01-02T08:26:10.123Z,4.13
2019-01-02T08:28:47.348Z,3.90
2019-01-02T08:31:24.468Z,8.97
2019-01-02T08:34:19.756Z,4.70
2019-01-02T08:37:09.156Z,5.13
2019-01-02T08:39:55.308Z,6.17
2019-01-02T08:42:41.740Z,12.03
2019-01-02T08:45:27.302Z,8.53
2019-01-02T08:48:07.884Z,7.20
2019-01-02T08:50:57.041Z,7.77
2019-01-02T08:53:28.569Z,5.80
2019-01-02T08:56:25.408Z,5.40
2019-01-02T08:58:56.933Z,6.37
2019-01-02T09:01:28.438Z,5.00
2019-01-02T09:04:14.428Z,3.77
2019-01-02T09:07:00.820Z,6.23
2019-01-02T09:09:43.994Z,5.37
2019-01-02T09:12:18.419Z,6.57
2019-01-02T09:15:10.921Z,5.40
2019-01-02T09:18:04.928Z,8.43
2019-01-02T09:20:51.307Z,5.63
2019-01-02T09:23:25.408Z,6.67
2019-01-02T09:26:08.824Z,5.37
2019-01-02T09:28:48.807Z,2.83
2019-01-02T09:31:25.888Z,8.10
2019-01-02T09:34:00.196Z,5.43
2019-01-02T09:36:47.771Z,6.23
2019-01-02T09:39:21.836Z,3.67
2019-01-02T09:42:05.431Z,7.47
2019-01-02T09:45:03.967Z,7.77
2019-01-02T09:47:52.621Z,6.10
2019-01-02T09:50:44.336Z,4.83
2019-01-02T09:53:18.881Z,5.83
2019-01-02T09:55:50.416Z,4.43
2019-01-02T09:58:24.579Z,5.50
2019-01-02T10:01:08.071Z,8.70
2019-01-02T10:03:51.613Z,4.63
2019-01-02T10:06:38.088Z,3.43
2019-01-02T10:09:30.544Z,7.80
2019-01-02T10:12:10.668Z,9.83
2019-01-02T10:15:03.461Z,4.90
2019-01-02T10:17:43.545Z,5.13
2019-01-02T10:20:34.202Z,5.53
2019-01-02T10:23:26.370Z,7.20
2019-01-02T10:26:03.929Z,6.43
2019-01-02T10:28:41.239Z,10.30
2019-01-02T10:31:27.372Z,5.50
2019-01-02T10:34:16.703Z,5.00
2019-01-02T10:37:12.099Z,3.67
2019-01-02T10:40:16.420Z,6.87
2019-01-02T10:42:47.931Z,6.20
2019-01-02T10:45:34.184Z,7.50
2019-01-02T10:48:08.476Z,7.00
2019-01-02T10:51:02.104Z,6.77
2019-01-02T10:53:33.595Z,6.20
2019-01-02T10:56:10.500Z,4.03
2019-01-02T10:58:41.975Z,10.10
2019-01-02T11:01:19.304Z,11.20
2019-01-02T11:04:05.400Z,3.77
2019-01-02T11:06:45.695Z,5.60
2019-01-02T11:09:22.665Z,7.77
2019-01-02T11:12:09.115Z,8.53
2019-01-02T11:14:46.085Z,7.03
2019-01-02T11:17:37.746Z,6.53
2019-01-02T11:20:25.444Z,7.03
2019-01-02T11:23:14.859Z,5.53
2019-01-02T11:26:01.231Z,9.67
2019-01-02T11:28:44.596Z,7.80
2019-01-02T11:31:16.096Z,4.73
2019-01-02T11:34:02.473Z,5.07
2019-01-02T11:36:51.437Z,5.60
2019-01-02T11:39:25.758Z,6.90
2019-01-02T11:42:03.095Z,4.47
2019-01-02T11:44:34.892Z,4.03
2019-01-02T11:47:03.306Z,11.50
2019-01-02T11:49:31.696Z,6.07
2019-01-02T11:52:00.156Z,4.93
2019-01-02T11:54:28.611Z,7.17
2019-01-02T11:56:57.080Z,5.57
2019-01-02T11:59:25.618Z,3.70
2019-01-02T12:01:54.055Z,10.23
2019-01-02T12:04:22.494Z,8.87
2019-01-02T12:06:50.904Z,3.97
2019-01-02T12:09:19.378Z,5.73
2019-01-02T12:11:47.899Z,4.87
2019-01-02T12:14:16.392Z,5.10
2019-01-02T12:16:44.951Z,7.23
2019-01-02T12:19:13.348Z,5.70
2019-01-02T12:21:41.848Z,4.90
2019-01-02T12:24:10.252Z,5.87
2019-01-02T12:26:38.720Z,3.97
2019-01-02T12:29:07.180Z,5.50
2019-01-02T12:31:35.580Z,3.90
2019-01-02T12:34:04.022Z,7.70
2019-01-02T12:36:32.491Z,4.73
2019-01-02T12:39:00.904Z,2.93
2019-01-02T12:41:29.347Z,3.00
2019-01-02T12:43:57.748Z,4.43
2019-01-02T12:46:26.203Z,5.87
2019-01-02T12:48:54.688Z,4.27
2019-01-02T12:51:23.191Z,4.63
2019-01-02T12:53:51.759Z,6.40
2019-01-02T12:56:20.151Z,9.43
2019-01-02T12:58:48.840Z,2.93
2019-01-02T13:01:19.080Z,5.67
2019-01-02T13:04:07.086Z,3.50
2019-01-02T13:06:50.475Z,3.87
2019-01-02T13:09:30.793Z,3.33
2019-01-02T13:12:18.532Z,5.67
2019-01-02T13:14:58.676Z,7.07
2019-01-02T13:17:36.205Z,3.10
2019-01-02T13:20:36.092Z,3.03
2019-01-02T13:23:10.537Z,4.37
2019-01-02T13:25:45.004Z,4.47
2019-01-02T13:28:32.555Z,3.77
2019-01-02T13:31:37.154Z,4.40
2019-01-02T13:34:25.946Z,2.20
2019-01-02T13:37:00.340Z,4.93
2019-01-02T13:39:37.673Z,3.83
2019-01-02T13:42:18.123Z,4.47
2019-01-02T13:44:52.546Z,3.43
2019-01-02T13:47:39.121Z,15.17
2019-01-02T13:50:13.120Z,2.03
2019-01-02T13:52:41.621Z,3.93
2019-01-02T13:55:13.700Z,2.87
2019-01-02T13:57:42.154Z,4.73
2019-01-02T14:00:11.449Z,6.13
2019-01-02T14:02:39.930Z,3.07
2019-01-02T14:05:11.755Z,3.87
2019-01-02T14:07:40.180Z,3.23
2019-01-02T14:10:10.127Z,6.40
2019-01-02T14:12:38.533Z,8.67
2019-01-02T14:15:07.650Z,6.00
2019-01-02T14:17:36.050Z,5.63
2019-01-02T14:20:07.008Z,4.60
2019-01-02T14:22:35.417Z,5.10
2019-01-02T14:25:04.280Z,5.57
2019-01-02T14:27:32.804Z,3.03
2019-01-02T14:30:01.202Z,3.03
2019-01-02T14:32:29.648Z,2.73
2019-01-02T14:34:58.146Z,5.17
2019-01-02T14:37:26.581Z,3.00
2019-01-02T14:39:54.995Z,5.83
2019-01-02T14:42:23.788Z,3.90
2019-01-02T14:44:52.187Z,2.67
2019-01-02T14:47:20.644Z,5.30
2019-01-02T14:49:49.075Z,5.23
2019-01-02T14:52:17.720Z,4.60
2019-01-02T14:54:46.152Z,2.20
2019-01-02T14:57:14.584Z,5.63
2019-01-02T14:59:42.995Z,3.07
2019-01-02T15:02:11.428Z,5.13
2019-01-02T15:04:39.857Z,3.43
2019-01-02T15:07:08.384Z,4.33
2019-01-02T15:09:36.783Z,5.37
2019-01-02T15:12:05.245Z,3.63
2019-01-02T15:14:33.675Z,6.27
2019-01-02T15:17:02.063Z,2.73
2019-01-02T15:19:30.551Z,3.73
2019-01-02T15:22:04.712Z,4.60
2019-01-02T15:24:29.145Z,2.60
2019-01-02T15:26:57.568Z,6.27
2019-01-02T15:29:26.183Z,5.87
2019-01-02T15:31:54.603Z,2.40
2019-01-02T15:34:23.015Z,3.80
2019-01-02T15:36:51.455Z,4.87
2019-01-02T15:39:19.877Z,1.97
2019-01-02T15:41:48.274Z,3.73
2019-01-02T15:44:16.702Z,4.27
2019-01-02T15:46:45.116Z,2.47
2019-01-02T15:49:13.556Z,4.30
2019-01-02T15:51:41.956Z,7.47
2019-01-02T15:54:10.393Z,3.60
2019-01-02T15:56:38.784Z,5.40
2019-01-02T15:59:07.205Z,5.63
2019-01-02T16:01:35.628Z,5.67
2019-01-02T16:04:04.112Z,4.20
2019-01-02T16:06:32.647Z,3.00
2019-01-02T16:09:01.046Z,3.83
2019-01-02T16:11:29.701Z,5.60
2019-01-02T16:13:58.096Z,6.47
2019-01-02T16:16:26.529Z,5.70
2019-01-02T16:18:55.011Z,6.30
2019-01-02T16:21:23.476Z,4.63
2019-01-02T16:23:52.088Z,4.07
2019-01-02T16:26:20.600Z,3.60
2019-01-02T16:28:48.992Z,4.57
2019-01-02T16:31:17.482Z,6.10
2019-01-02T16:33:45.904Z,4.30
2019-01-02T16:36:14.296Z,4.77
2019-01-02T16:38:42.781Z,1.67
2019-01-02T16:41:11.255Z,3.07
2019-01-02T16:43:40.735Z,8.17
2019-01-02T16:46:09.237Z,3.47
2019-01-02T16:48:37.816Z,2.97
2019-01-02T16:51:06.487Z,5.63
2019-01-02T16:53:34.896Z,4.07
2019-01-02T16:56:03.479Z,3.67
2019-01-02T16:58:31.960Z,3.97
2019-01-02T17:01:00.422Z,3.53
2019-01-02T17:03:28.847Z,3.60
2019-01-02T17:05:57.317Z,3.23
2019-01-02T17:08:25.748Z,3.43
2019-01-02T17:10:54.160Z,5.77
2019-01-02T17:13:22.668Z,5.40
2019-01-02T17:15:51.055Z,3.90
2019-01-02T17:18:19.461Z,5.57
2019-01-02T17:20:47.884Z,6.33
2019-01-02T17:23:16.280Z,4.53
2019-01-02T17:25:44.883Z,5.33
2019-01-02T17:28:13.374Z,6.57
2019-01-02T17:30:41.813Z,6.30
2019-01-02T17:33:10.262Z,3.03
2019-01-02T17:35:38.706Z,4.13
2019-01-02T17:38:07.140Z,3.97
2019-01-02T17:40:35.678Z,6.83
2019-01-02T17:43:04.152Z,6.83
2019-01-02T17:45:32.578Z,8.80
2019-01-02T17:48:00.973Z,7.00
2019-01-02T17:50:29.626Z,4.70
2019-01-02T17:52:58.049Z,7.50
2019-01-02T17:55:26.453Z,10.20
2019-01-02T17:57:54.873Z,7.00
2019-01-02T18:00:23.291Z,12.10
2019-01-02T18:02:51.715Z,8.37
2019-01-02T18:05:20.223Z,10.57
2019-01-02T18:07:48.885Z,9.70
2019-01-02T18:10:17.303Z,6.30
2019-01-02T18:12:45.705Z,5.57
2019-01-02T18:15:14.157Z,7.73
2019-01-02T18:17:42.648Z,5.17
2019-01-02T18:20:11.079Z,4.73
2019-01-02T18:22:39.559Z,4.70
2019-01-02T18:25:08.232Z,5.00
2019-01-02T18:27:36.627Z,7.27
2019-01-02T18:30:08.127Z,5.27
2019-01-02T18:32:36.525Z,6.17
2019-01-02T18:35:08.683Z,8.93
2019-01-02T18:37:37.093Z,4.43
2019-01-02T18:40:06.056Z,6.37
2019-01-02T18:42:34.483Z,4.63
2019-01-02T18:45:02.912Z,6.73
2019-01-02T18:47:31.333Z,9.80
2019-01-02T18:49:59.857Z,7.43
2019-01-02T18:52:28.284Z,4.47
2019-01-02T18:54:56.702Z,4.80
2019-01-02T18:57:25.254Z,4.53
2019-01-02T18:59:53.687Z,9.80
2019-01-02T19:02:22.127Z,6.03
2019-01-02T19:04:50.557Z,3.80
2019-01-02T19:07:18.994Z,4.17
2019-01-02T19:09:47.419Z,3.87
2019-01-02T19:12:15.879Z,4.20
2019-01-02T19:14:44.393Z,9.97
2019-01-02T19:17:12.813Z,6.27
2019-01-02T19:19:41.464Z,10.23
2019-01-02T19:22:10.820Z,8.03
2019-01-02T19:24:39.288Z,4.30
2019-01-02T19:27:07.734Z,5.50
2019-01-02T19:29:36.196Z,9.77
2019-01-02T19:32:04.640Z,4.10
2019-01-02T19:34:33.064Z,4.67
2019-01-02T19:37:01.536Z,8.53
2019-01-02T19:39:30.037Z,5.13
2019-01-02T19:41:58.465Z,5.07
2019-01-02T19:44:26.876Z,9.00
2019-01-02T19:46:55.299Z,5.03
2019-01-02T19:49:23.703Z,7.00
2019-01-02T19:51:52.127Z,8.73
2019-01-02T19:54:20.533Z,7.93
2019-01-02T19:56:49.042Z,5.03
2019-01-02T19:59:17.460Z,10.57
2019-01-02T20:01:45.940Z,8.67
2019-01-02T20:04:15.462Z,10.87
2019-01-02T20:06:43.940Z,9.57
2019-01-02T20:09:12.371Z,10.27
2019-01-02T20:11:40.787Z,8.13
2019-01-02T20:14:09.273Z,9.30
2019-01-02T20:16:37.695Z,11.60
2019-01-02T20:19:06.111Z,10.63
2019-01-02T20:21:34.776Z,9.43
2019-01-02T20:24:03.183Z,9.67
2019-01-02T20:26:31.976Z,10.70
2019-01-02T20:29:00.408Z,11.43
2019-01-02T20:31:28.936Z,10.10
2019-01-02T20:33:57.335Z,12.03
2019-01-02T20:36:25.751Z,9.63
2019-01-02T20:38:54.224Z,11.47
2019-01-02T20:41:22.716Z,10.77
2019-01-02T20:43:51.239Z,10.37
2019-01-02T20:46:19.631Z,10.60
2019-01-02T20:48:48.090Z,10.37
2019-01-02T20:51:16.481Z,14.73
2019-01-02T20:53:45.174Z,12.93
2019-01-02T20:56:13.559Z,11.27
2019-01-02T20:58:42.030Z,10.60
2019-01-02T21:01:10.498Z,11.13
2019-01-02T21:03:38.929Z,10.17
2019-01-02T21:06:07.364Z,12.00
2019-01-02T21:08:35.769Z,13.73
2019-01-02T21:11:04.176Z,11.07
2019-01-02T21:13:32.605Z,8.77
2019-01-02T21:16:01.012Z,13.57
2019-01-02T21:18:29.431Z,9.43
2019-01-02T21:20:58.086Z,9.70
2019-01-02T21:23:26.489Z,10.30
2019-01-02T21:25:54.931Z,8.63
2019-01-02T21:28:23.328Z,7.70
2019-01-02T21:30:51.768Z,10.90
2019-01-02T21:33:20.222Z,8.03
2019-01-02T21:35:48.657Z,6.80
2019-01-02T21:38:17.080Z,10.57
2019-01-02T21:40:45.482Z,8.87
2019-01-02T21:43:14.172Z,9.50
2019-01-02T21:45:42.587Z,9.87
2019-01-02T21:48:11.057Z,7.17
2019-01-02T21:50:39.454Z,11.27
2019-01-02T21:53:07.889Z,9.83
2019-01-02T21:55:36.397Z,6.63
2019-01-02T21:58:04.793Z,8.20
2019-01-02T22:00:33.359Z,6.20
2019-01-02T22:03:01.767Z,7.67
2019-01-02T22:05:30.277Z,6.93
2019-01-02T22:07:59.927Z,7.47
2019-01-02T22:10:28.514Z,11.67
2019-01-02T22:12:56.939Z,7.87
2019-01-02T22:15:25.353Z,5.63
2019-01-02T22:17:54.019Z,6.93
2019-01-02T22:20:22.447Z,5.60
2019-01-02T22:22:50.995Z,5.83
2019-01-02T22:25:19.665Z,7.57
2019-01-02T22:27:48.097Z,6.10
2019-01-02T22:30:16.529Z,5.77
2019-01-02T22:32:45.172Z,4.70
2019-01-02T22:35:13.609Z,7.63
2019-01-02T22:37:42.008Z,5.33
2019-01-02T22:40:10.440Z,4.93
2019-01-02T22:42:38.852Z,6.30
2019-01-02T22:45:07.435Z,7.33
2019-01-02T22:47:35.856Z,8.13
2019-01-02T22:50:06.516Z,8.00
2019-01-02T22:52:34.947Z,5.03
2019-01-02T22:55:03.423Z,5.13
2019-01-02T22:57:31.921Z,6.47
2019-01-02T23:00:00.336Z,7.00
2019-01-02T23:02:30.459Z,7.07
2019-01-02T23:05:03.178Z,7.43
2019-01-02T23:07:35.972Z,7.60
2019-01-02T23:10:09.060Z,6.57
2019-01-02T23:12:55.088Z,6.40
2019-01-02T23:15:34.090Z,6.33
2019-01-02T23:18:13.076Z,6.70
2019-01-02T23:21:01.263Z,6.77
2019-01-02T23:23:39.768Z,8.50
2019-01-02T23:26:18.375Z,4.67
2019-01-02T23:28:48.418Z,10.77
2019-01-02T23:31:18.479Z,10.43
2019-01-02T23:33:48.528Z,4.67
2019-01-02T23:36:18.849Z,5.23
2019-01-02T23:39:04.095Z,5.47
2019-01-02T23:41:34.143Z,5.33
2019-01-02T23:44:15.656Z,5.30
2019-01-02T23:46:54.409Z,6.80
2019-01-02T23:49:30.490Z,7.83
2019-01-02T23:52:06.296Z,4.77
2019-01-02T23:54:36.388Z,6.87
2019-01-02T23:57:09.099Z,6.03
2019-01-02T23:59:47.724Z,9.10
